Time;durP1;ratioP1;P1;durP2;ratioP2;P2;SDS_P1;SDS_P2;PMS_P1;PMS_P2;Temp;Humidity;BMP_temperature;BMP_pressure;BME280_temperature;BME280_humidity;BME280_pressure;Samples;Min_cycle;Max_cycle;Signal;HPM_P1;HPM_P2
2022/12/19 00:02:08;;;;;;;37.08;18.00;;;;;;;;;;4982527;28;20027;-81
2022/12/19 00:04:34;;;;;;;45.00;21.85;;;;;;;;;;4982379;28;20045;-81
2022/12/19 00:07:00;;;;;;;44.03;19.85;;;;;;;;;;4981851;28;20034;-81
2022/12/19 00:09:27;;;;;;;47.30;22.13;;;;;;;;;;4981530;28;20037;-81
2022/12/19 00:11:53;;;;;;;42.75;21.08;;;;;;;;;;4983430;28;20026;-82
2022/12/19 00:14:20;;;;;;;42.45;21.33;;;;;;;;;;4983523;28;20027;-81
2022/12/19 00:16:46;;;;;;;39.53;21.42;;;;;;;;;;4981949;28;20390;-81
2022/12/19 00:19:12;;;;;;;50.97;20.98;;;;;;;;;;4981762;28;20449;-82
2022/12/19 00:21:38;;;;;;;38.35;18.30;;;;;;;;;;4984595;28;20027;-82
2022/12/19 00:24:06;;;;;;;45.22;21.25;;;;;;;;;;4982089;28;20287;-82
2022/12/19 00:26:33;;;;;;;49.30;21.27;;;;;;;;;;4982850;28;20043;-82
2022/12/19 00:29:03;;;;;;;48.53;21.40;;;;;;;;;;4976633;28;20022;-83
2022/12/19 00:31:30;;;;;;;45.67;19.98;;;;;;;;;;4982848;28;20055;-81
2022/12/19 00:33:57;;;;;;;39.22;19.65;;;;;;;;;;4980668;28;20088;-81
2022/12/19 00:36:24;;;;;;;48.05;22.17;;;;;;;;;;4976463;28;20066;-82
2022/12/19 00:38:51;;;;;;;49.95;22.67;;;;;;;;;;4975624;28;20031;-81
2022/12/19 00:41:19;;;;;;;50.22;22.95;;;;;;;;;;4975870;28;20499;-82
2022/12/19 00:43:45;;;;;;;44.75;19.48;;;;;;;;;;4970275;28;20031;-81
2022/12/19 00:46:12;;;;;;;48.63;20.88;;;;;;;;;;4980625;28;20038;-82
2022/12/19 00:48:38;;;;;;;47.08;22.25;;;;;;;;;;4978880;28;20031;-82
2022/12/19 00:51:07;;;;;;;43.33;22.55;;;;;;;;;;4983264;28;20027;-81
2022/12/19 00:53:33;;;;;;;42.67;21.17;;;;;;;;;;4973733;28;20030;-82
2022/12/19 00:56:03;;;;;;;46.88;21.65;;;;;;;;;;4979545;28;20122;-81
2022/12/19 00:58:30;;;;;;;43.13;18.25;;;;;;;;;;4974867;28;20086;-82
2022/12/19 01:00:56;;;;;;;42.55;21.23;;;;;;;;;;4982214;28;20057;-81
2022/12/19 01:03:22;;;;;;;49.47;22.30;;;;;;;;;;4976572;28;20061;-82
2022/12/19 01:05:49;;;;;;;49.75;22.42;;;;;;;;;;4982840;28;20029;-81
2022/12/19 01:08:18;;;;;;;50.65;20.92;;;;;;;;;;4975509;28;20560;-81
2022/12/19 01:10:45;;;;;;;43.70;17.48;;;;;;;;;;4984312;28;20050;-81
2022/12/19 01:13:11;;;;;;;44.85;22.77;;;;;;;;;;4981851;28;20023;-81
2022/12/19 01:15:40;;;;;;;44.20;24.13;;;;;;;;;;4983350;28;20114;-80
2022/12/19 01:18:09;;;;;;;40.28;20.85;;;;;;;;;;4983087;28;20058;-81
2022/12/19 01:20:37;;;;;;;41.67;19.40;;;;;;;;;;4984149;28;20046;-82
2022/12/19 01:23:03;;;;;;;42.30;22.17;;;;;;;;;;4982576;28;20035;-80
2022/12/19 01:25:29;;;;;;;41.13;19.48;;;;;;;;;;4983932;28;20046;-81
2022/12/19 01:27:55;;;;;;;41.00;19.10;;;;;;;;;;4982752;28;20476;-81
2022/12/19 01:30:22;;;;;;;39.47;21.35;;;;;;;;;;4983316;28;20026;-80
2022/12/19 01:32:48;;;;;;;38.30;17.40;;;;;;;;;;4978218;28;20050;-81
2022/12/19 01:35:14;;;;;;;40.45;20.90;;;;;;;;;;4980922;28;20484;-80
2022/12/19 01:37:40;;;;;;;31.70;18.70;;;;;;;;;;4982151;28;20450;-80
2022/12/19 01:40:06;;;;;;;36.33;19.63;;;;;;;;;;4983362;28;20027;-81
2022/12/19 01:42:36;;;;;;;37.30;18.30;;;;;;;;;;4983950;28;20035;-80
2022/12/19 01:45:02;;;;;;;33.00;16.70;;;;;;;;;;4980157;28;20038;-80
2022/12/19 01:47:29;;;;;;;36.67;18.30;;;;;;;;;;4983207;28;20141;-81
2022/12/19 01:49:55;;;;;;;34.08;18.08;;;;;;;;;;4982462;28;20023;-81
2022/12/19 01:52:21;;;;;;;36.05;18.77;;;;;;;;;;4972138;28;20035;-82
2022/12/19 01:54:48;;;;;;;32.92;17.33;;;;;;;;;;4973837;28;20102;-80
2022/12/19 01:57:15;;;;;;;37.83;18.23;;;;;;;;;;4980239;28;20030;-81
2022/12/19 01:59:49;;;;;;;41.45;21.38;;;;;;;;;;4981175;28;20026;-81
2022/12/19 02:02:25;;;;;;;37.00;19.27;;;;;;;;;;4980207;28;20556;-82
2022/12/19 02:04:51;;;;;;;38.33;18.50;;;;;;;;;;4975772;28;20504;-81
2022/12/19 02:07:21;;;;;;;35.47;18.42;;;;;;;;;;4978468;28;20066;-80
2022/12/19 02:09:49;;;;;;;36.35;17.15;;;;;;;;;;4979057;28;20050;-80
2022/12/19 02:12:15;;;;;;;35.05;15.55;;;;;;;;;;4980595;28;20205;-81
2022/12/19 02:14:41;;;;;;;34.38;16.70;;;;;;;;;;4979050;28;20073;-82
2022/12/19 02:17:27;;;;;;;32.13;16.35;;;;;;;;;;4980687;28;20034;-83
2022/12/19 02:20:12;;;;;;;32.10;17.65;;;;;;;;;;4980829;28;20027;-81
2022/12/19 02:23:07;;;;;;;29.20;15.88;;;;;;;;;;4982112;28;20077;-80
2022/12/19 02:25:32;;;;;;;29.63;14.90;;;;;;;;;;4963951;28;20050;-83
2022/12/19 02:28:21;;;;;;;28.67;15.85;;;;;;;;;;4981295;28;20516;-80
2022/12/19 02:31:06;;;;;;;23.77;14.95;;;;;;;;;;4980091;28;20023;-81
2022/12/19 02:33:35;;;;;;;26.08;14.23;;;;;;;;;;4961757;28;20028;-81
2022/12/19 02:36:12;;;;;;;26.70;14.60;;;;;;;;;;4980524;28;20034;-80
2022/12/19 02:38:45;;;;;;;22.63;13.63;;;;;;;;;;4980390;28;20432;-82
2022/12/19 02:41:18;;;;;;;28.38;15.32;;;;;;;;;;4980270;28;20022;-81
2022/12/19 02:43:44;;;;;;;;;;;;;;;;;;4964520;28;20037;-84
2022/12/19 02:46:10;;;;;;;28.70;13.75;;;;;;;;;;4979291;28;19964;-81
2022/12/19 02:48:37;;;;;;;25.00;13.77;;;;;;;;;;4980513;28;20078;-82
2022/12/19 02:51:03;;;;;;;25.10;14.80;;;;;;;;;;4977511;28;20027;-81
2022/12/19 02:53:29;;;;;;;23.92;12.90;;;;;;;;;;4974260;28;20023;-82
2022/12/19 02:55:58;;;;;;;29.92;16.75;;;;;;;;;;4977593;28;20034;-81
2022/12/19 02:58:28;;;;;;;27.35;14.07;;;;;;;;;;4978465;28;20398;-81
2022/12/19 03:01:10;;;;;;;30.20;15.40;;;;;;;;;;4979930;28;20034;-80
2022/12/19 03:03:45;;;;;;;23.90;15.25;;;;;;;;;;4960851;28;20023;-79
2022/12/19 03:06:11;;;;;;;26.35;14.88;;;;;;;;;;4979900;28;20034;-82
2022/12/19 03:08:43;;;;;;;28.33;15.35;;;;;;;;;;4975905;28;20023;-82
2022/12/19 03:11:12;;;;;;;28.05;14.77;;;;;;;;;;4967355;28;20050;-82
2022/12/19 03:13:38;;;;;;;34.80;16.88;;;;;;;;;;4980089;28;20026;-83
2022/12/19 03:16:07;;;;;;;28.35;14.40;;;;;;;;;;4980740;28;20031;-82
2022/12/19 03:18:33;;;;;;;31.15;15.73;;;;;;;;;;4963343;29;20162;-82
2022/12/19 03:21:15;;;;;;;24.38;15.30;;;;;;;;;;4951990;28;20034;-81
2022/12/19 03:23:41;;;;;;;26.95;14.15;;;;;;;;;;4980959;28;20110;-79
2022/12/19 03:26:14;;;;;;;30.70;16.27;;;;;;;;;;4975887;28;20145;-81
2022/12/19 03:28:47;;;;;;;28.85;14.77;;;;;;;;;;4991034;28;20023;-82
2022/12/19 03:31:15;;;;;;;28.10;15.20;;;;;;;;;;4984934;28;20031;-82
2022/12/19 03:33:42;;;;;;;27.10;14.85;;;;;;;;;;4981128;28;20573;-82
2022/12/19 03:36:11;;;;;;;31.50;17.15;;;;;;;;;;4981665;28;20065;-82
2022/12/19 03:38:39;;;;;;;29.38;15.48;;;;;;;;;;4982727;28;20054;-82
2022/12/19 03:41:06;;;;;;;31.58;15.88;;;;;;;;;;4983342;28;20049;-82
2022/12/19 03:43:34;;;;;;;32.60;15.63;;;;;;;;;;4974378;28;20031;-82
2022/12/19 03:46:06;;;;;;;26.58;15.23;;;;;;;;;;4965943;28;20031;-81
2022/12/19 03:48:37;;;;;;;23.40;13.68;;;;;;;;;;4991030;28;20022;-81
2022/12/19 03:51:03;;;;;;;34.42;17.10;;;;;;;;;;4985786;28;20059;-80
2022/12/19 03:53:36;;;;;;;29.30;15.50;;;;;;;;;;4978541;28;20035;-83
2022/12/19 03:56:16;;;;;;;24.83;13.95;;;;;;;;;;4984152;28;20081;-82
2022/12/19 03:58:46;;;;;;;22.92;13.80;;;;;;;;;;4981838;28;20397;-83
2022/12/19 04:01:12;;;;;;;28.92;15.13;;;;;;;;;;4982222;28;20034;-81
2022/12/19 04:03:38;;;;;;;26.38;12.93;;;;;;;;;;4980577;28;20077;-84
2022/12/19 04:06:05;;;;;;;27.27;15.00;;;;;;;;;;4982298;28;20042;-84
2022/12/19 04:08:33;;;;;;;30.00;15.82;;;;;;;;;;4983419;28;20022;-83
2022/12/19 04:11:02;;;;;;;30.85;16.00;;;;;;;;;;4980308;28;20027;-84
2022/12/19 04:13:35;;;;;;;28.55;15.85;;;;;;;;;;4980912;28;20042;-83
2022/12/19 04:16:07;;;;;;;29.85;15.25;;;;;;;;;;4983362;28;20029;-82
2022/12/19 04:18:34;;;;;;;27.05;15.02;;;;;;;;;;4979946;28;20117;-85
2022/12/19 04:21:07;;;;;;;25.65;14.63;;;;;;;;;;4980968;28;20031;-84
2022/12/19 04:23:36;;;;;;;30.80;16.77;;;;;;;;;;4979858;28;20027;-85
2022/12/19 04:26:03;;;;;;;30.55;14.13;;;;;;;;;;4979209;28;20096;-83
2022/12/19 04:28:35;;;;;;;30.80;15.68;;;;;;;;;;4982505;28;20023;-83
2022/12/19 04:31:02;;;;;;;27.02;15.35;;;;;;;;;;4982931;28;20044;-80
2022/12/19 04:33:28;;;;;;;31.75;18.25;;;;;;;;;;4978294;28;20056;-84
2022/12/19 04:35:54;;;;;;;32.00;17.00;;;;;;;;;;4979458;28;20181;-83
2022/12/19 04:38:21;;;;;;;32.75;16.33;;;;;;;;;;4980181;28;20030;-83
2022/12/19 04:40:47;;;;;;;29.88;16.23;;;;;;;;;;4980779;28;20023;-83
2022/12/19 04:43:13;;;;;;;25.13;13.82;;;;;;;;;;4976172;28;20551;-81
2022/12/19 04:45:42;;;;;;;25.42;15.05;;;;;;;;;;4980664;28;20381;-83
2022/12/19 04:48:08;;;;;;;27.67;14.55;;;;;;;;;;4980952;28;20027;-83
2022/12/19 04:50:34;;;;;;;32.30;18.42;;;;;;;;;;4981633;28;20078;-84
2022/12/19 04:53:00;;;;;;;32.47;14.00;;;;;;;;;;4979419;28;20034;-83
2022/12/19 04:55:27;;;;;;;31.20;16.05;;;;;;;;;;4978884;28;20038;-81
2022/12/19 04:57:53;;;;;;;29.40;16.63;;;;;;;;;;4980113;28;20041;-83
2022/12/19 05:00:19;;;;;;;33.17;17.05;;;;;;;;;;4979865;28;20030;-84
2022/12/19 05:02:45;;;;;;;33.95;17.05;;;;;;;;;;4979861;28;20034;-83
2022/12/19 05:05:11;;;;;;;29.52;16.52;;;;;;;;;;4980292;28;20038;-81
2022/12/19 05:07:37;;;;;;;28.80;14.98;;;;;;;;;;4979834;28;20540;-82
2022/12/19 05:10:04;;;;;;;39.28;18.38;;;;;;;;;;4979597;28;20031;-83
2022/12/19 05:12:30;;;;;;;34.15;17.75;;;;;;;;;;4980239;28;20039;-82
2022/12/19 05:14:56;;;;;;;27.45;16.42;;;;;;;;;;4977764;28;20027;-83
2022/12/19 05:17:22;;;;;;;36.05;17.48;;;;;;;;;;4976789;28;20066;-84
2022/12/19 05:19:48;;;;;;;32.20;15.80;;;;;;;;;;4990750;28;20010;-78
2022/12/19 05:22:14;;;;;;;29.98;14.65;;;;;;;;;;4995569;28;20027;-79
2022/12/19 05:24:40;;;;;;;36.47;16.55;;;;;;;;;;4997587;28;20010;-80
2022/12/19 05:27:06;;;;;;;30.92;16.52;;;;;;;;;;4995236;28;20070;-79
2022/12/19 05:29:33;;;;;;;29.27;16.63;;;;;;;;;;4993402;28;20018;-81
2022/12/19 05:31:59;;;;;;;31.80;17.17;;;;;;;;;;4985142;28;20019;-84
2022/12/19 05:34:25;;;;;;;32.58;16.38;;;;;;;;;;4965669;28;20077;-82
2022/12/19 05:36:51;;;;;;;31.02;16.00;;;;;;;;;;4981952;28;20103;-81
2022/12/19 05:39:17;;;;;;;37.80;16.58;;;;;;;;;;4979320;28;20054;-81
2022/12/19 05:41:43;;;;;;;37.33;17.13;;;;;;;;;;4989497;28;20038;-83
2022/12/19 05:44:10;;;;;;;32.05;15.98;;;;;;;;;;4984412;28;20023;-83
2022/12/19 05:46:36;;;;;;;40.20;17.35;;;;;;;;;;4973663;28;20138;-83
2022/12/19 05:49:02;;;;;;;31.80;17.50;;;;;;;;;;4974875;28;20031;-80
2022/12/19 05:51:28;;;;;;;35.08;16.92;;;;;;;;;;4995745;28;20370;-80
2022/12/19 05:53:54;;;;;;;28.98;15.25;;;;;;;;;;4993037;28;20021;-79
2022/12/19 05:56:22;;;;;;;39.28;16.30;;;;;;;;;;4989899;28;20035;-84
2022/12/19 05:58:48;;;;;;;29.33;14.95;;;;;;;;;;4984624;28;20049;-81
2022/12/19 06:01:21;;;;;;;32.58;16.15;;;;;;;;;;4986097;28;20049;-84
2022/12/19 06:03:47;;;;;;;28.33;14.73;;;;;;;;;;4986594;28;20027;-83
2022/12/19 06:06:15;;;;;;;34.05;17.00;;;;;;;;;;4988563;28;20066;-84
2022/12/19 06:08:41;;;;;;;33.65;15.82;;;;;;;;;;4987189;28;20026;-83
2022/12/19 06:11:08;;;;;;;29.85;17.08;;;;;;;;;;4988861;28;20085;-80
2022/12/19 06:13:35;;;;;;;32.67;16.10;;;;;;;;;;4985955;28;20312;-84
2022/12/19 06:16:02;;;;;;;36.67;17.30;;;;;;;;;;4980201;28;20051;-84
2022/12/19 06:18:29;;;;;;;32.53;15.55;;;;;;;;;;4955376;28;20125;-83
2022/12/19 06:20:56;;;;;;;32.67;16.80;;;;;;;;;;4987689;28;20011;-82
2022/12/19 06:23:22;;;;;;;32.65;15.50;;;;;;;;;;4985879;28;20031;-83
2022/12/19 06:25:48;;;;;;;30.77;14.50;;;;;;;;;;4987428;28;20135;-83
2022/12/19 06:28:14;;;;;;;44.25;16.88;;;;;;;;;;4986526;28;20414;-83
2022/12/19 06:30:40;;;;;;;32.67;16.33;;;;;;;;;;4988973;28;20023;-83
2022/12/19 06:33:06;;;;;;;26.55;15.80;;;;;;;;;;4989268;28;20087;-80
2022/12/19 06:35:32;;;;;;;34.97;17.08;;;;;;;;;;4986584;28;20030;-83
2022/12/19 06:37:58;;;;;;;35.67;19.13;;;;;;;;;;4986650;28;20039;-84
2022/12/19 06:43:08;;;;;;;33.85;14.70;;;;;;;;;;4987519;28;20149;-82
2022/12/19 06:45:34;;;;;;;31.63;17.52;;;;;;;;;;4986378;28;20050;-82
2022/12/19 06:48:00;;;;;;;31.98;15.80;;;;;;;;;;4984840;28;20035;-78
2022/12/19 06:50:26;;;;;;;29.92;14.27;;;;;;;;;;4986672;28;20034;-82
2022/12/19 06:52:52;;;;;;;35.05;17.63;;;;;;;;;;4984410;28;20031;-82
2022/12/19 06:55:18;;;;;;;36.97;16.27;;;;;;;;;;4985560;28;20090;-83
2022/12/19 06:57:45;;;;;;;33.63;17.63;;;;;;;;;;4982264;28;20031;-82
2022/12/19 07:00:14;;;;;;;40.28;17.13;;;;;;;;;;4991297;28;20035;-81
2022/12/19 07:02:45;;;;;;;40.03;18.40;;;;;;;;;;4979101;28;20029;-80
2022/12/19 07:05:12;;;;;;;36.70;18.60;;;;;;;;;;4967667;28;20042;-83
2022/12/19 07:07:38;;;;;;;31.73;15.95;;;;;;;;;;4961655;28;20103;-82
2022/12/19 07:10:05;;;;;;;32.47;15.05;;;;;;;;;;4991803;28;20033;-83
2022/12/19 07:12:31;;;;;;;39.00;16.98;;;;;;;;;;4990113;28;20090;-84
2022/12/19 07:14:57;;;;;;;29.30;14.80;;;;;;;;;;4991218;28;20102;-82
2022/12/19 07:17:24;;;;;;;32.22;16.08;;;;;;;;;;4989664;28;20081;-79
2022/12/19 07:19:50;;;;;;;28.00;13.85;;;;;;;;;;4992653;28;20102;-79
2022/12/19 07:22:28;;;;;;;31.00;14.52;;;;;;;;;;4985323;28;20028;-80
2022/12/19 07:24:55;;;;;;;35.30;16.15;;;;;;;;;;4990081;28;20030;-82
2022/12/19 07:27:21;;;;;;;26.77;12.60;;;;;;;;;;4993126;28;20352;-78
2022/12/19 07:29:48;;;;;;;30.80;14.02;;;;;;;;;;4991067;28;20068;-80
2022/12/19 07:32:14;;;;;;;29.10;14.25;;;;;;;;;;4992440;28;20029;-84
2022/12/19 07:34:40;;;;;;;30.92;13.70;;;;;;;;;;4992166;28;20031;-82
2022/12/19 07:37:06;;;;;;;32.38;14.15;;;;;;;;;;4990040;28;20041;-82
2022/12/19 07:39:32;;;;;;;30.42;12.75;;;;;;;;;;4983129;28;20066;-79
2022/12/19 07:41:58;;;;;;;26.55;11.90;;;;;;;;;;4980825;28;20039;-83
2022/12/19 07:44:24;;;;;;;24.48;12.23;;;;;;;;;;4983373;28;20021;-83
2022/12/19 07:46:51;;;;;;;26.77;12.35;;;;;;;;;;4992789;28;20054;-82
2022/12/19 07:49:17;;;;;;;26.73;11.98;;;;;;;;;;4983512;28;20323;-83
2022/12/19 07:51:43;;;;;;;33.60;13.35;;;;;;;;;;4988904;28;20109;-84
2022/12/19 07:54:09;;;;;;;28.98;13.20;;;;;;;;;;4990705;28;20023;-80
2022/12/19 07:56:35;;;;;;;25.35;11.82;;;;;;;;;;4992179;28;20027;-80
2022/12/19 07:59:01;;;;;;;27.90;12.50;;;;;;;;;;4991091;28;20094;-80
2022/12/19 08:01:27;;;;;;;26.58;11.63;;;;;;;;;;4991905;28;20031;-81
2022/12/19 08:03:53;;;;;;;27.98;12.15;;;;;;;;;;4992201;28;20054;-81
2022/12/19 08:06:19;;;;;;;29.77;13.05;;;;;;;;;;4992660;28;20007;-80
2022/12/19 08:08:45;;;;;;;26.55;12.93;;;;;;;;;;4997561;28;20023;-82
2022/12/19 08:11:16;;;;;;;29.08;13.10;;;;;;;;;;4993030;28;20061;-82
2022/12/19 08:13:42;;;;;;;28.90;13.88;;;;;;;;;;4991207;28;20094;-83
2022/12/19 08:16:09;;;;;;;29.33;13.13;;;;;;;;;;4990651;28;20030;-81
2022/12/19 08:18:35;;;;;;;29.95;11.90;;;;;;;;;;4991553;28;20027;-82
2022/12/19 08:21:01;;;;;;;33.63;13.60;;;;;;;;;;4992532;28;20034;-83
2022/12/19 08:23:27;;;;;;;29.92;13.27;;;;;;;;;;4991300;28;20042;-84
2022/12/19 08:26:04;;;;;;;22.48;9.93;;;;;;;;;;4990054;28;20046;-82
2022/12/19 08:28:31;;;;;;;26.17;10.93;;;;;;;;;;4990162;28;20436;-82
2022/12/19 08:30:57;;;;;;;21.30;10.70;;;;;;;;;;4987752;28;20031;-82
2022/12/19 08:33:23;;;;;;;24.67;11.85;;;;;;;;;;4983932;28;20030;-84
2022/12/19 08:35:49;;;;;;;28.90;13.55;;;;;;;;;;4990517;28;20033;-81
2022/12/19 08:38:15;;;;;;;27.75;12.10;;;;;;;;;;4988986;28;20027;-83
2022/12/19 08:40:42;;;;;;;22.95;10.25;;;;;;;;;;4988052;28;20177;-84
2022/12/19 08:43:07;;;;;;;23.65;12.30;;;;;;;;;;4987622;28;20082;-80
2022/12/19 08:45:33;;;;;;;26.98;13.88;;;;;;;;;;4991778;28;20508;-79
2022/12/19 08:47:59;;;;;;;23.27;12.27;;;;;;;;;;4991018;28;20041;-80
2022/12/19 08:50:26;;;;;;;25.27;11.15;;;;;;;;;;4988611;28;20026;-84
2022/12/19 08:52:52;;;;;;;25.17;11.00;;;;;;;;;;4988130;28;20030;-79
2022/12/19 08:55:18;;;;;;;22.73;11.30;;;;;;;;;;4991414;28;20023;-81
2022/12/19 08:57:44;;;;;;;28.88;12.65;;;;;;;;;;4988194;28;20105;-81
2022/12/19 09:00:10;;;;;;;28.88;12.48;;;;;;;;;;4989768;28;20035;-83
2022/12/19 09:02:36;;;;;;;28.20;13.57;;;;;;;;;;4989970;28;20023;-84
2022/12/19 09:05:02;;;;;;;27.77;13.35;;;;;;;;;;4988066;28;20081;-83
2022/12/19 09:07:29;;;;;;;25.48;13.07;;;;;;;;;;4989867;28;20030;-81
2022/12/19 09:09:55;;;;;;;31.92;13.65;;;;;;;;;;4990473;28;20058;-81
2022/12/19 09:12:21;;;;;;;26.55;12.07;;;;;;;;;;4988747;28;20042;-82
2022/12/19 09:14:47;;;;;;;25.30;11.95;;;;;;;;;;4990177;28;20026;-82
2022/12/19 09:17:13;;;;;;;22.65;10.90;;;;;;;;;;4987907;28;20443;-83
2022/12/19 09:19:39;;;;;;;25.02;13.25;;;;;;;;;;4988343;28;20031;-83
2022/12/19 09:22:05;;;;;;;22.40;11.77;;;;;;;;;;4989851;28;20070;-78
2022/12/19 09:24:31;;;;;;;30.10;12.45;;;;;;;;;;4993680;28;20030;-81
2022/12/19 09:26:58;;;;;;;22.35;11.30;;;;;;;;;;4987918;28;20050;-80
2022/12/19 09:29:24;;;;;;;24.90;9.73;;;;;;;;;;4987980;28;20031;-82
2022/12/19 09:31:50;;;;;;;28.27;11.10;;;;;;;;;;4987275;28;20041;-83
2022/12/19 09:34:16;;;;;;;28.05;13.18;;;;;;;;;;4988419;28;20480;-82
2022/12/19 09:36:42;;;;;;;26.42;12.80;;;;;;;;;;4990087;28;20031;-84
2022/12/19 09:39:09;;;;;;;28.30;14.60;;;;;;;;;;4987300;28;20098;-85
2022/12/19 09:41:35;;;;;;;25.15;13.05;;;;;;;;;;4989949;28;20019;-82
2022/12/19 09:44:10;;;;;;;30.88;13.55;;;;;;;;;;4990004;28;20419;-83
2022/12/19 09:46:53;;;;;;;25.40;12.35;;;;;;;;;;4988509;28;20030;-84
2022/12/19 09:49:21;;;;;;;23.17;12.75;;;;;;;;;;4989110;28;20023;-80
2022/12/19 09:52:00;;;;;;;25.70;11.98;;;;;;;;;;4986107;28;20073;-82
2022/12/19 09:54:32;;;;;;;27.27;13.25;;;;;;;;;;4989022;28;20075;-83
2022/12/19 09:56:59;;;;;;;34.20;14.65;;;;;;;;;;4988194;28;20050;-83
2022/12/19 09:59:25;;;;;;;29.77;12.40;;;;;;;;;;4987873;28;20047;-81
2022/12/19 10:01:55;;;;;;;33.47;13.63;;;;;;;;;;4986374;28;20500;-83
2022/12/19 10:04:22;;;;;;;24.05;11.90;;;;;;;;;;4985169;28;20026;-82
2022/12/19 10:06:50;;;;;;;29.02;13.95;;;;;;;;;;4985788;28;20118;-80
2022/12/19 10:09:18;;;;;;;26.25;10.98;;;;;;;;;;4985628;28;20022;-82
2022/12/19 10:11:47;;;;;;;27.95;13.20;;;;;;;;;;4984242;28;20085;-83
2022/12/19 10:14:21;;;;;;;28.00;13.45;;;;;;;;;;4985365;28;20019;-84
2022/12/19 10:16:53;;;;;;;37.65;14.45;;;;;;;;;;4986672;28;20070;-83
2022/12/19 10:19:25;;;;;;;27.55;11.52;;;;;;;;;;4989993;28;20030;-85
2022/12/19 10:22:10;;;;;;;28.50;12.35;;;;;;;;;;4992628;28;20038;-83
2022/12/19 10:24:39;;;;;;;28.17;13.40;;;;;;;;;;4990746;28;20163;-83
2022/12/19 10:27:27;;;;;;;28.60;13.02;;;;;;;;;;4989937;28;20043;-85
2022/12/19 10:30:00;;;;;;;30.55;15.00;;;;;;;;;;4988658;28;20026;-84
2022/12/19 10:32:35;;;;;;;30.35;14.88;;;;;;;;;;4987971;28;20159;-82
2022/12/19 10:35:01;;;;;;;25.33;12.70;;;;;;;;;;4989954;28;20027;-80
2022/12/19 10:37:28;;;;;;;25.38;12.48;;;;;;;;;;4989595;28;20053;-83
2022/12/19 10:40:13;;;;;;;35.53;12.70;;;;;;;;;;4988425;28;20035;-84
2022/12/19 10:42:51;;;;;;;31.10;14.48;;;;;;;;;;4989259;28;20023;-82
2022/12/19 10:45:19;;;;;;;29.05;13.82;;;;;;;;;;4989596;28;20035;-83
2022/12/19 10:47:47;;;;;;;30.10;14.63;;;;;;;;;;4988654;28;20031;-80
2022/12/19 10:50:21;;;;;;;34.45;14.93;;;;;;;;;;4986693;28;20139;-81
2022/12/19 10:52:51;;;;;;;26.23;13.20;;;;;;;;;;4984868;28;20019;-82
2022/12/19 10:55:28;;;;;;;33.78;14.48;;;;;;;;;;4986086;28;20086;-81
2022/12/19 10:57:57;;;;;;;31.10;13.77;;;;;;;;;;4985245;28;20049;-82
2022/12/19 11:00:23;;;;;;;25.50;13.65;;;;;;;;;;4989825;28;20053;-83
2022/12/19 11:02:52;;;;;;;32.42;14.25;;;;;;;;;;4990467;28;20054;-82
2022/12/19 11:05:24;;;;;;;30.02;13.63;;;;;;;;;;4990257;28;20027;-81
2022/12/19 11:07:59;;;;;;;28.45;13.68;;;;;;;;;;4988277;28;20038;-83
2022/12/19 11:10:44;;;;;;;27.02;13.60;;;;;;;;;;4983041;28;20037;-83
2022/12/19 11:13:27;;;;;;;33.55;14.55;;;;;;;;;;4949658;28;20082;-81
2022/12/19 11:15:55;;;;;;;29.30;13.40;;;;;;;;;;4967274;28;20082;-82
2022/12/19 11:18:21;;;;;;;33.65;15.68;;;;;;;;;;4978828;28;20041;-83
2022/12/19 11:21:01;;;;;;;23.50;11.77;;;;;;;;;;4989536;28;20030;-82
2022/12/19 11:23:28;;;;;;;25.00;12.75;;;;;;;;;;4992386;28;20069;-81
2022/12/19 11:26:00;;;;;;;35.67;14.95;;;;;;;;;;4995750;28;20075;-83
2022/12/19 11:28:29;;;;;;;36.55;15.43;;;;;;;;;;4989687;28;20023;-81
2022/12/19 11:30:57;;;;;;;34.22;15.90;;;;;;;;;;4985562;28;20019;-82
2022/12/19 11:33:23;;;;;;;35.95;16.25;;;;;;;;;;4982182;28;20031;-82
2022/12/19 11:35:53;;;;;;;26.95;13.43;;;;;;;;;;4984736;28;20029;-82
2022/12/19 11:38:27;;;;;;;30.38;13.30;;;;;;;;;;4984599;28;20031;-81
2022/12/19 11:40:55;;;;;;;25.38;13.23;;;;;;;;;;4987493;28;20031;-82
2022/12/19 11:43:25;;;;;;;26.95;14.88;;;;;;;;;;4991549;28;20209;-79
2022/12/19 11:45:51;;;;;;;27.50;13.63;;;;;;;;;;4995242;28;20026;-79
2022/12/19 11:48:23;;;;;;;33.40;15.57;;;;;;;;;;4998404;28;20042;-82
2022/12/19 11:50:56;;;;;;;32.72;15.07;;;;;;;;;;4999556;28;20030;-81
2022/12/19 11:53:39;;;;;;;28.65;13.98;;;;;;;;;;4998761;28;20497;-78
2022/12/19 11:56:11;;;;;;;32.28;16.13;;;;;;;;;;4989938;28;20098;-82
2022/12/19 11:58:37;;;;;;;25.60;14.53;;;;;;;;;;4991064;28;20437;-81
2022/12/19 12:01:09;;;;;;;30.23;13.88;;;;;;;;;;4987121;28;20031;-82
2022/12/19 12:03:35;;;;;;;29.80;14.88;;;;;;;;;;4986767;28;20062;-82
2022/12/19 12:06:07;;;;;;;35.20;15.70;;;;;;;;;;4984892;28;20038;-83
2022/12/19 12:08:52;;;;;;;35.45;15.55;;;;;;;;;;4986975;28;20019;-82
2022/12/19 12:11:18;;;;;;;31.90;14.48;;;;;;;;;;4985003;28;20469;-82
2022/12/19 12:13:56;;;;;;;26.95;14.30;;;;;;;;;;4985822;28;20091;-82
2022/12/19 12:16:26;;;;;;;25.70;11.00;;;;;;;;;;4984749;28;20031;-81
2022/12/19 12:19:04;;;;;;;27.00;15.20;;;;;;;;;;4994758;28;20023;-77
2022/12/19 12:21:42;;;;;;;36.05;17.20;;;;;;;;;;4996982;28;20031;-80
2022/12/19 12:24:27;;;;;;;36.47;16.92;;;;;;;;;;4997327;28;20042;-81
2022/12/19 12:27:09;;;;;;;35.10;17.08;;;;;;;;;;4989252;28;20074;-83
2022/12/19 12:29:47;;;;;;;35.10;15.43;;;;;;;;;;4966314;28;20083;-83
2022/12/19 12:32:22;;;;;;;26.33;13.90;;;;;;;;;;4966061;28;20086;-82
2022/12/19 12:34:48;;;;;;;28.40;14.57;;;;;;;;;;4966885;28;20027;-82
2022/12/19 12:37:27;;;;;;;29.98;14.30;;;;;;;;;;4948844;29;20137;-81
2022/12/19 12:40:02;;;;;;;30.85;16.15;;;;;;;;;;4979396;28;20557;-82
2022/12/19 12:42:46;;;;;;;36.63;15.75;;;;;;;;;;4977810;28;20438;-81
2022/12/19 12:45:23;;;;;;;28.85;15.75;;;;;;;;;;4983142;28;20069;-84
2022/12/19 12:47:51;;;;;;;37.78;16.52;;;;;;;;;;4978864;28;20030;-81
2022/12/19 12:50:18;;;;;;;30.05;14.63;;;;;;;;;;4981119;28;20023;-83
2022/12/19 12:52:49;;;;;;;34.10;16.00;;;;;;;;;;4979704;28;20030;-81
2022/12/19 12:55:17;;;;;;;40.50;17.58;;;;;;;;;;4982451;28;20401;-81
2022/12/19 12:57:43;;;;;;;35.88;16.35;;;;;;;;;;4969008;28;20078;-82
2022/12/19 13:00:29;;;;;;;37.65;16.92;;;;;;;;;;4977178;28;20031;-82
2022/12/19 13:02:57;;;;;;;34.35;15.07;;;;;;;;;;4977897;28;20054;-83
2022/12/19 13:05:36;;;;;;;36.17;17.88;;;;;;;;;;4975264;28;20035;-82
2022/12/19 13:08:21;;;;;;;33.85;15.57;;;;;;;;;;4975796;28;20042;-82
2022/12/19 13:10:55;;;;;;;34.97;16.25;;;;;;;;;;4976360;28;20019;-82
2022/12/19 13:13:41;;;;;;;35.15;16.83;;;;;;;;;;4978992;28;20114;-81
2022/12/19 13:16:26;;;;;;;38.63;16.60;;;;;;;;;;4979215;28;20035;-81
2022/12/19 13:19:18;;;;;;;33.28;15.20;;;;;;;;;;4978259;28;20085;-82
2022/12/19 13:21:59;;;;;;;28.95;16.10;;;;;;;;;;4977798;28;20054;-82
2022/12/19 13:24:36;;;;;;;37.90;16.83;;;;;;;;;;4978465;28;20125;-82
2022/12/19 13:27:02;;;;;;;30.00;15.15;;;;;;;;;;4985334;28;20050;-83
2022/12/19 13:29:30;;;;;;;33.40;16.50;;;;;;;;;;4981878;28;20061;-83
2022/12/19 13:32:13;;;;;;;32.67;15.40;;;;;;;;;;4980488;28;20031;-82
2022/12/19 13:34:39;;;;;;;34.05;15.30;;;;;;;;;;4979425;28;20039;-82
2022/12/19 13:37:25;;;;;;;37.10;17.20;;;;;;;;;;4977720;28;20034;-83
2022/12/19 13:39:51;;;;;;;25.50;13.52;;;;;;;;;;4971478;28;20045;-81
2022/12/19 13:45:23;;;;;;;26.95;14.10;;;;;;;;;;4975891;28;20046;-82
2022/12/19 13:47:50;;;;;;;29.23;14.13;;;;;;;;;;4978501;28;20077;-82
2022/12/19 13:50:28;;;;;;;30.00;15.82;;;;;;;;;;4972525;28;20516;-80
2022/12/19 13:52:54;;;;;;;25.80;14.70;;;;;;;;;;4959495;28;20031;-82
2022/12/19 13:55:20;;;;;;;33.55;18.52;;;;;;;;;;4978038;28;20026;-81
2022/12/19 13:57:47;;;;;;;26.98;14.10;;;;;;;;;;4969328;28;20035;-80
2022/12/19 14:00:17;;;;;;;29.55;14.75;;;;;;;;;;4980878;28;20023;-82
2022/12/19 14:02:49;;;;;;;29.75;14.43;;;;;;;;;;4976066;28;20085;-83
2022/12/19 14:05:21;;;;;;;35.22;15.27;;;;;;;;;;4977350;28;20057;-80
2022/12/19 14:07:49;;;;;;;37.20;16.33;;;;;;;;;;4973525;28;20097;-80
2022/12/19 14:10:24;;;;;;;25.77;13.27;;;;;;;;;;4978142;28;20086;-83
2022/12/19 14:15:40;;;;;;;28.75;14.05;;;;;;;;;;4976503;28;20082;-83
2022/12/19 14:18:20;;;;;;;33.78;15.63;;;;;;;;;;4979979;28;20090;-80
2022/12/19 14:20:50;;;;;;;30.85;14.18;;;;;;;;;;4975643;28;20026;-81
2022/12/19 14:23:16;;;;;;;30.42;14.73;;;;;;;;;;4981312;28;20142;-84
2022/12/19 14:25:46;;;;;;;29.40;15.60;;;;;;;;;;4977635;28;20322;-82
2022/12/19 14:28:22;;;;;;;32.08;15.98;;;;;;;;;;4978501;28;20046;-83
2022/12/19 14:30:50;;;;;;;27.92;14.88;;;;;;;;;;4978060;28;20019;-83
2022/12/19 14:33:20;;;;;;;43.20;16.23;;;;;;;;;;4978078;28;20023;-83
2022/12/19 14:35:52;;;;;;;29.85;16.73;;;;;;;;;;4972206;28;20102;-80
2022/12/19 14:38:20;;;;;;;34.33;17.55;;;;;;;;;;4957758;28;20045;-81
2022/12/19 14:40:46;;;;;;;32.47;16.88;;;;;;;;;;4943983;29;20531;-84